Time,TemperatureF,DewpointF,PressureIn,WindDirection,WindDirectionDegrees,WindSpeedMPH,WindSpeedGustMPH,Humidity,HourlyPrecipIn,Conditions,Clouds,dailyrainin,SoftwareType,DateUTC
2013-11-19 00:01:00,28.8,17.7,30.24,NW,315,0.0,0.0,63,0.00,,,0.00,WUHU21623XXSP,2013-11-19 06:01:00,
2013-11-19 00:06:00,28.8,17.7,30.24,NW,315,0.0,0.0,63,0.00,,,0.00,WUHU21623XXSP,2013-11-19 06:06:00,
2013-11-19 00:11:00,28.6,17.6,30.24,NNW,337,0.0,0.0,63,0.00,,,0.00,WUHU21623XXSP,2013-11-19 06:11:00,
2013-11-19 00:16:00,28.6,17.6,30.23,North,0,0.0,0.0,63,0.00,,,0.00,WUHU21623XXSP,2013-11-19 06:16:00,
2013-11-19 00:21:00,28.6,17.6,30.23,North,0,0.0,0.0,63,0.00,,,0.00,WUHU21623XXSP,2013-11-19 06:21:00,
2013-11-19 00:26:00,28.6,17.6,30.24,North,0,0.0,0.0,63,0.00,,,0.00,WUHU21623XXSP,2013-11-19 06:26:00,
2013-11-19 00:31:00,28.4,17.4,30.24,North,0,0.0,0.0,63,0.00,,,0.00,WUHU21623XXSP,2013-11-19 06:31:00,
2013-11-19 00:36:00,28.4,17.4,30.24,NE,45,0.0,0.0,63,0.00,,,0.00,WUHU21623XXSP,2013-11-19 06:36:00,
2013-11-19 00:41:00,28.2,17.2,30.24,NE,45,0.0,0.0,63,0.00,,,0.00,WUHU21623XXSP,2013-11-19 06:41:00,
2013-11-19 00:46:00,28.2,17.2,30.24,NE,45,0.0,0.0,63,0.00,,,0.00,WUHU21623XXSP,2013-11-19 06:46:00,
2013-11-19 00:51:00,28.2,17.6,30.25,NE,45,0.0,0.0,64,0.00,,,0.00,WUHU21623XXSP,2013-11-19 06:51:00,
2013-11-19 00:56:00,27.9,17.2,30.25,NE,45,0.0,0.0,64,0.00,,,0.00,WUHU21623XXSP,2013-11-19 06:56:00,
2013-11-19 01:01:00,27.9,17.2,30.25,NE,45,0.0,0.0,64,0.00,,,0.00,WUHU21623XXSP,2013-11-19 07:01:00,
2013-11-19 01:06:00,27.9,17.2,30.25,NE,45,0.0,0.0,64,0.00,,,0.00,WUHU21623XXSP,2013-11-19 07:06:00,
2013-11-19 01:11:00,27.7,17.1,30.25,NE,45,0.0,0.0,64,0.00,,,0.00,WUHU21623XXSP,2013-11-19 07:11:00,
2013-11-19 01:16:00,27.5,16.9,30.24,NE,45,0.0,0.0,64,0.00,,,0.00,WUHU21623XXSP,2013-11-19 07:16:00,
2013-11-19 01:21:00,27.3,16.7,30.25,NE,45,0.0,0.0,64,0.00,,,0.00,WUHU21623XXSP,2013-11-19 07:21:00,
2013-11-19 01:26:00,27.3,16.7,30.25,NE,45,0.0,0.0,64,0.00,,,0.00,WUHU21623XXSP,2013-11-19 07:26:00,
2013-11-19 01:31:00,27.3,16.7,30.25,NE,45,0.0,0.0,64,0.00,,,0.00,WUHU21623XXSP,2013-11-19 07:31:00,
2013-11-19 01:36:00,27.1,16.5,30.25,NNE,22,0.0,0.0,64,0.00,,,0.00,WUHU21623XXSP,2013-11-19 07:36:00,
2013-11-19 01:42:00,27.1,16.5,30.25,NNE,22,0.0,0.0,64,0.00,,,0.00,WUHU21623XXSP,2013-11-19 07:42:00,
2013-11-19 01:47:00,27.1,16.9,30.26,NNE,22,0.0,0.0,65,0.00,,,0.00,WUHU21623XXSP,2013-11-19 07:47:00,
2013-11-19 01:52:00,27.0,16.7,30.27,NNE,22,0.0,0.0,65,0.00,,,0.00,WUHU21623XXSP,2013-11-19 07:52:00,
2013-11-19 01:57:00,27.0,16.7,30.27,NNE,22,0.0,0.0,65,0.00,,,0.00,WUHU21623XXSP,2013-11-19 07:57:00,
2013-11-19 02:01:00,26.8,16.5,30.27,NNE,22,0.0,0.0,65,0.00,,,0.00,WUHU21623XXSP,2013-11-19 08:01:00,
2013-11-19 02:06:00,26.6,16.3,30.27,NNE,22,0.0,0.0,65,0.00,,,0.00,WUHU21623XXSP,2013-11-19 08:06:00,
2013-11-19 02:11:00,26.1,15.8,30.27,NNE,22,0.0,0.0,65,0.00,,,0.00,WUHU21623XXSP,2013-11-19 08:11:00,
2013-11-19 02:16:00,26.2,16.2,30.27,NNE,22,0.0,0.0,65,0.00,,,0.00,WUHU21623XXSP,2013-11-19 08:16:00,
2013-11-19 02:22:00,26.2,16.0,30.27,NNE,22,0.0,0.0,65,0.00,,,0.00,WUHU21623XXSP,2013-11-19 08:22:00,
2013-11-19 02:27:00,25.9,15.7,30.27,NNE,22,0.0,0.0,65,0.00,,,0.00,WUHU21623XXSP,2013-11-19 08:27:00,
2013-11-19 02:32:00,26.1,16.2,30.27,NNE,22,0.0,0.0,66,0.00,,,0.00,WUHU21623XXSP,2013-11-19 08:32:00,
2013-11-19 02:36:00,26.1,16.2,30.29,NNE,22,0.0,0.0,66,0.00,,,0.00,WUHU21623XXSP,2013-11-19 08:36:00,
2013-11-19 02:41:00,25.7,15.8,30.29,NNE,22,0.0,0.0,66,0.00,,,0.00,WUHU21623XXSP,2013-11-19 08:41:00,
2013-11-19 02:46:00,25.9,16.0,30.28,NNW,337,0.0,0.0,66,0.00,,,0.00,WUHU21623XXSP,2013-11-19 08:46:00,
2013-11-19 02:51:00,25.7,16.2,30.29,West,270,0.0,0.0,67,0.00,,,0.00,WUHU21623XXSP,2013-11-19 08:51:00,
2013-11-19 02:56:00,25.7,16.2,30.29,WSW,247,0.0,0.0,67,0.00,,,0.00,WUHU21623XXSP,2013-11-19 08:56:00,
2013-11-19 03:01:00,25.5,16.0,30.29,WSW,247,0.0,0.0,67,0.00,,,0.00,WUHU21623XXSP,2013-11-19 09:01:00,
2013-11-19 03:07:00,25.7,16.2,30.29,NW,315,0.0,0.0,67,0.00,,,0.00,WUHU21623XXSP,2013-11-19 09:07:00,
2013-11-19 03:12:00,25.5,16.0,30.28,NW,315,0.0,0.0,67,0.00,,,0.00,WUHU21623XXSP,2013-11-19 09:12:00,
2013-11-19 03:16:00,25.7,16.5,30.28,NW,315,0.0,0.0,68,0.00,,,0.00,WUHU21623XXSP,2013-11-19 09:16:00,
2013-11-19 03:21:00,25.5,16.0,30.29,NW,315,0.0,0.0,67,0.00,,,0.00,WUHU21623XXSP,2013-11-19 09:21:00,
2013-11-19 03:26:00,25.5,16.0,30.29,NW,315,0.0,0.0,67,0.00,,,0.00,WUHU21623XXSP,2013-11-19 09:26:00,
2013-11-19 03:32:00,25.5,16.4,30.28,NW,315,0.0,0.0,68,0.00,,,0.00,WUHU21623XXSP,2013-11-19 09:32:00,
2013-11-19 03:37:00,25.5,16.4,30.28,NW,315,0.0,0.0,68,0.00,,,0.00,WUHU21623XXSP,2013-11-19 09:37:00,
2013-11-19 03:42:00,25.2,15.7,30.28,NW,315,0.0,0.0,67,0.00,,,0.00,WUHU21623XXSP,2013-11-19 09:42:00,
2013-11-19 03:47:00,25.5,16.4,30.28,NW,315,0.0,0.0,68,0.00,,,0.00,WUHU21623XXSP,2013-11-19 09:47:00,
2013-11-19 03:52:00,25.2,16.0,30.28,North,0,0.0,0.0,68,0.00,,,0.00,WUHU21623XXSP,2013-11-19 09:52:00,
2013-11-19 03:57:00,25.3,16.2,30.28,NNE,22,0.0,0.0,68,0.00,,,0.00,WUHU21623XXSP,2013-11-19 09:57:00,
2013-11-19 04:02:00,25.0,15.8,30.28,NNE,22,0.0,0.9,68,0.00,,,0.00,WUHU21623XXSP,2013-11-19 10:02:00,
2013-11-19 04:07:00,25.0,15.8,30.28,NNE,22,0.0,0.9,68,0.00,,,0.00,WUHU21623XXSP,2013-11-19 10:07:00,
2013-11-19 04:12:00,25.0,15.8,30.28,NNE,22,0.0,0.0,68,0.00,,,0.00,WUHU21623XXSP,2013-11-19 10:12:00,
2013-11-19 04:17:00,24.6,15.5,30.29,NNE,22,0.0,0.0,68,0.00,,,0.00,WUHU21623XXSP,2013-11-19 10:17:00,
2013-11-19 04:22:00,24.6,15.5,30.30,NNE,22,0.0,0.0,68,0.00,,,0.00,WUHU21623XXSP,2013-11-19 10:22:00,
2013-11-19 04:27:00,24.6,15.5,30.29,NNE,22,0.0,0.0,68,0.00,,,0.00,WUHU21623XXSP,2013-11-19 10:27:00,
2013-11-19 04:32:00,24.6,15.5,30.29,NNE,22,0.0,0.0,68,0.00,,,0.00,WUHU21623XXSP,2013-11-19 10:32:00,
2013-11-19 04:37:00,24.4,15.3,30.29,NNE,22,0.0,0.0,68,0.00,,,0.00,WUHU21623XXSP,2013-11-19 10:37:00,
2013-11-19 04:42:00,24.4,15.3,30.30,NNE,22,0.0,0.0,68,0.00,,,0.00,WUHU21623XXSP,2013-11-19 10:42:00,
2013-11-19 04:47:00,24.4,15.3,30.30,NNE,22,0.0,0.0,68,0.00,,,0.00,WUHU21623XXSP,2013-11-19 10:47:00,
2013-11-19 04:52:00,24.4,15.3,30.30,NNE,22,0.0,0.0,68,0.00,,,0.00,WUHU21623XXSP,2013-11-19 10:52:00,
2013-11-19 04:57:00,24.4,15.3,30.30,NNE,22,0.0,0.0,68,0.00,,,0.00,WUHU21623XXSP,2013-11-19 10:57:00,
2013-11-19 05:02:00,24.4,15.3,30.30,NNE,22,0.0,0.0,68,0.00,,,0.00,WUHU21623XXSP,2013-11-19 11:02:00,
2013-11-19 05:07:00,24.4,15.7,30.31,NNE,22,0.0,0.0,69,0.00,,,0.00,WUHU21623XXSP,2013-11-19 11:07:00,
2013-11-19 05:12:00,24.3,15.5,30.31,NNE,22,0.0,0.0,69,0.00,,,0.00,WUHU21623XXSP,2013-11-19 11:12:00,
2013-11-19 05:17:00,24.3,15.5,30.31,NNE,22,0.0,0.0,69,0.00,,,0.00,WUHU21623XXSP,2013-11-19 11:17:00,
2013-11-19 05:22:00,24.1,15.3,30.30,NNE,22,0.0,0.0,69,0.00,,,0.00,WUHU21623XXSP,2013-11-19 11:22:00,
2013-11-19 05:27:00,24.1,15.3,30.30,NNE,22,0.0,0.0,69,0.00,,,0.00,WUHU21623XXSP,2013-11-19 11:27:00,
2013-11-19 05:32:00,24.1,15.3,30.30,NNE,22,0.0,0.0,69,0.00,,,0.00,WUHU21623XXSP,2013-11-19 11:32:00,
2013-11-19 05:37:00,23.9,15.2,30.30,NNE,22,0.0,0.0,69,0.00,,,0.00,WUHU21623XXSP,2013-11-19 11:37:00,
2013-11-19 05:42:00,24.1,15.3,30.30,NNE,22,0.0,0.0,69,0.00,,,0.00,WUHU21623XXSP,2013-11-19 11:42:00,
2013-11-19 05:47:00,24.1,15.3,30.30,NNE,22,0.0,0.0,69,0.00,,,0.00,WUHU21623XXSP,2013-11-19 11:47:00,
2013-11-19 05:52:00,23.9,15.2,30.30,NNE,22,0.0,0.0,69,0.00,,,0.00,WUHU21623XXSP,2013-11-19 11:52:00,
2013-11-19 05:57:00,23.9,15.2,30.30,NNE,22,0.0,0.0,69,0.00,,,0.00,WUHU21623XXSP,2013-11-19 11:57:00,
2013-11-19 06:02:00,23.9,15.2,30.31,NNE,22,0.0,0.0,69,0.00,,,0.00,WUHU21623XXSP,2013-11-19 12:02:00,
2013-11-19 06:07:00,23.9,15.2,30.30,NNE,22,0.0,0.0,69,0.00,,,0.00,WUHU21623XXSP,2013-11-19 12:07:00,
2013-11-19 06:12:00,23.9,15.2,30.30,NNE,22,0.0,0.0,69,0.00,,,0.00,WUHU21623XXSP,2013-11-19 12:12:00,
2013-11-19 06:17:00,23.9,15.2,30.31,NNE,22,0.0,0.0,69,0.00,,,0.00,WUHU21623XXSP,2013-11-19 12:17:00,
2013-11-19 06:22:00,23.9,15.2,30.30,NNE,22,0.0,0.0,69,0.00,,,0.00,WUHU21623XXSP,2013-11-19 12:22:00,
2013-11-19 06:27:00,23.9,15.2,30.30,NNE,22,0.0,0.0,69,0.00,,,0.00,WUHU21623XXSP,2013-11-19 12:27:00,
2013-11-19 06:32:00,24.1,15.7,30.30,NNE,22,0.0,0.0,70,0.00,,,0.00,WUHU21623XXSP,2013-11-19 12:32:00,
2013-11-19 06:37:00,24.1,15.7,30.30,NNE,22,0.0,0.0,70,0.00,,,0.00,WUHU21623XXSP,2013-11-19 12:37:00,
2013-11-19 06:42:00,24.1,15.7,30.31,NNE,22,0.0,0.0,70,0.00,,,0.00,WUHU21623XXSP,2013-11-19 12:42:00,
2013-11-19 06:47:00,24.1,15.7,30.30,NNE,22,0.0,0.0,70,0.00,,,0.00,WUHU21623XXSP,2013-11-19 12:47:00,
2013-11-19 06:52:00,24.1,15.7,30.30,NNE,22,0.0,0.0,70,0.00,,,0.00,WUHU21623XXSP,2013-11-19 12:52:00,
2013-11-19 06:57:00,23.9,15.5,30.31,NNE,22,0.0,0.0,70,0.00,,,0.00,WUHU21623XXSP,2013-11-19 12:57:00,
2013-11-19 07:02:00,24.1,15.7,30.31,NNE,22,0.0,0.0,70,0.00,,,0.00,WUHU21623XXSP,2013-11-19 13:02:00,
2013-11-19 07:07:00,23.9,15.5,30.30,NNE,22,0.0,0.0,70,0.00,,,0.00,WUHU21623XXSP,2013-11-19 13:07:00,
2013-11-19 07:12:00,23.9,15.5,30.31,NNE,22,0.0,0.0,70,0.00,,,0.00,WUHU21623XXSP,2013-11-19 13:12:00,
2013-11-19 07:17:00,24.1,15.7,30.31,NNE,22,0.0,0.0,70,0.00,,,0.00,WUHU21623XXSP,2013-11-19 13:17:00,
2013-11-19 07:22:00,25.0,16.8,30.30,NNE,22,0.0,0.0,71,0.00,,,0.00,WUHU21623XXSP,2013-11-19 13:22:00,
2013-11-19 07:27:00,26.4,18.3,30.31,NE,45,0.0,0.0,71,0.00,,,0.00,WUHU21623XXSP,2013-11-19 13:27:00,
2013-11-19 07:32:00,27.0,19.1,30.31,NE,45,0.0,0.0,72,0.00,,,0.00,WUHU21623XXSP,2013-11-19 13:32:00,
2013-11-19 07:37:00,28.0,19.9,30.30,ENE,67,0.0,0.0,71,0.00,,,0.00,WUHU21623XXSP,2013-11-19 13:37:00,
2013-11-19 07:42:00,28.0,19.9,30.30,ENE,67,0.0,0.0,70,0.00,,,0.00,WUHU21623XXSP,2013-11-19 13:42:00,
2013-11-19 07:47:00,28.6,19.6,30.30,ENE,67,0.0,0.0,70,0.00,,,0.00,WUHU21623XXSP,2013-11-19 13:47:00,
2013-11-19 07:52:00,28.6,19.7,30.30,ESE,112,0.0,0.0,69,0.00,,,0.00,WUHU21623XXSP,2013-11-19 13:52:00,
2013-11-19 07:57:00,29.1,19.9,30.30,ENE,67,1.3,1.3,69,0.00,,,0.00,WUHU21623XXSP,2013-11-19 13:57:00,
2013-11-19 08:02:00,29.7,20.4,30.30,ENE,67,1.3,1.3,69,0.00,,,0.00,WUHU21623XXSP,2013-11-19 14:02:00,
2013-11-19 08:07:00,30.0,21.0,30.31,East,90,0.0,1.3,69,0.00,,,0.00,WUHU21623XXSP,2013-11-19 14:07:00,
2013-11-19 08:12:00,30.9,21.6,30.31,East,90,0.0,1.3,68,0.00,,,0.00,WUHU21623XXSP,2013-11-19 14:12:00,
2013-11-19 08:17:00,32.0,22.6,30.31,ENE,67,0.0,0.0,68,0.00,,,0.00,WUHU21623XXSP,2013-11-19 14:17:00,
2013-11-19 08:22:00,32.9,23.1,30.31,East,90,0.0,0.0,67,0.00,,,0.00,WUHU21623XXSP,2013-11-19 14:22:00,
2013-11-19 08:27:00,33.3,23.4,30.31,East,90,0.0,0.0,67,0.00,,,0.00,WUHU21623XXSP,2013-11-19 14:27:00,
2013-11-19 08:28:00,33.3,23.4,30.31,East,90,0.0,0.0,67,0.00,,,0.00,WUHU21623XXSP,2013-11-19 14:28:00,
2013-11-19 08:33:00,33.6,22.9,30.30,ESE,112,0.0,0.0,65,0.00,,,0.00,WUHU21623XXSP,2013-11-19 14:33:00,
2013-11-19 08:38:00,33.8,22.5,30.31,ENE,67,0.0,0.9,63,0.00,,,0.00,WUHU21623XXSP,2013-11-19 14:38:00,
2013-11-19 08:43:00,33.8,21.9,30.31,SE,135,3.6,3.6,62,0.00,,,0.00,WUHU21623XXSP,2013-11-19 14:43:00,
2013-11-19 08:48:00,33.4,21.4,30.31,SE,135,1.1,3.6,61,0.00,,,0.00,WUHU21623XXSP,2013-11-19 14:48:00,
2013-11-19 08:53:00,33.3,20.9,30.31,East,90,0.0,1.1,60,0.00,,,0.00,WUHU21623XXSP,2013-11-19 14:53:00,
2013-11-19 08:58:00,33.4,21.1,30.31,ENE,67,1.3,1.3,60,0.00,,,0.00,WUHU21623XXSP,2013-11-19 14:58:00,
2013-11-19 09:03:00,33.4,21.1,30.31,ENE,67,1.3,1.3,60,0.00,,,0.00,WUHU21623XXSP,2013-11-19 15:03:00,
2013-11-19 09:08:00,33.4,21.1,30.30,ENE,67,1.3,1.3,59,0.00,,,0.00,WUHU21623XXSP,2013-11-19 15:08:00,
2013-11-19 09:13:00,33.4,20.6,30.31,SE,135,0.2,1.3,59,0.00,,,0.00,WUHU21623XXSP,2013-11-19 15:13:00,
2013-11-19 09:18:00,33.4,20.2,30.30,SE,135,1.1,1.8,58,0.00,,,0.00,WUHU21623XXSP,2013-11-19 15:18:00,
2013-11-19 09:23:00,33.4,20.2,30.30,SE,135,1.1,1.8,58,0.00,,,0.00,WUHU21623XXSP,2013-11-19 15:23:00,
2013-11-19 09:28:00,33.4,20.2,30.30,East,90,3.4,6.0,58,0.00,,,0.00,WUHU21623XXSP,2013-11-19 15:28:00,
2013-11-19 09:33:00,34.0,20.7,30.31,ESE,112,3.1,6.0,58,0.00,,,0.00,WUHU21623XXSP,2013-11-19 15:33:00,
2013-11-19 09:38:00,33.8,20.7,30.31,ESE,112,3.1,3.4,58,0.00,,,0.00,WUHU21623XXSP,2013-11-19 15:38:00,
2013-11-19 09:43:00,33.8,20.5,30.31,ESE,112,3.1,3.1,58,0.00,,,0.00,WUHU21623XXSP,2013-11-19 15:43:00,
2013-11-19 09:48:00,34.0,20.7,30.31,ESE,112,0.4,4.3,58,0.00,,,0.00,WUHU21623XXSP,2013-11-19 15:48:00,
2013-11-19 09:53:00,34.3,21.1,30.30,SSE,157,6.0,6.0,59,0.00,,,0.00,WUHU21623XXSP,2013-11-19 15:53:00,
2013-11-19 09:57:00,34.7,21.8,30.30,SSE,157,6.0,6.0,59,0.00,,,0.00,WUHU21623XXSP,2013-11-19 15:57:00,
2013-11-19 10:02:00,35.1,21.8,30.31,ESE,112,5.8,6.0,58,0.00,,,0.00,WUHU21623XXSP,2013-11-19 16:02:00,
2013-11-19 10:07:00,35.1,21.8,30.31,ESE,112,0.4,5.8,57,0.00,,,0.00,WUHU21623XXSP,2013-11-19 16:07:00,
2013-11-19 10:12:00,35.1,21.3,30.31,ESE,112,4.7,5.8,57,0.00,,,0.00,WUHU21623XXSP,2013-11-19 16:12:00,
2013-11-19 10:17:00,35.2,21.5,30.31,SSE,157,5.1,5.1,57,0.00,,,0.00,WUHU21623XXSP,2013-11-19 16:17:00,
2013-11-19 10:22:00,35.4,21.7,30.31,East,90,2.7,5.1,57,0.00,,,0.00,WUHU21623XXSP,2013-11-19 16:22:00,
2013-11-19 10:27:00,35.4,21.7,30.31,East,90,2.7,5.1,57,0.00,,,0.00,WUHU21623XXSP,2013-11-19 16:27:00,
2013-11-19 10:32:00,36.3,22.5,30.31,SE,135,3.8,3.8,57,0.00,,,0.00,WUHU21623XXSP,2013-11-19 16:32:00,
2013-11-19 10:37:00,36.5,22.7,30.32,SE,135,3.8,3.8,57,0.00,,,0.00,WUHU21623XXSP,2013-11-19 16:37:00,
2013-11-19 10:42:00,36.9,22.3,30.32,SE,135,3.8,3.8,55,0.00,,,0.00,WUHU21623XXSP,2013-11-19 16:42:00,
2013-11-19 10:47:00,37.0,22.3,30.32,East,90,0.7,3.8,55,0.00,,,0.00,WUHU21623XXSP,2013-11-19 16:47:00,
2013-11-19 10:52:00,37.0,22.3,30.31,ESE,112,0.0,2.9,55,0.00,,,0.00,WUHU21623XXSP,2013-11-19 16:52:00,
2013-11-19 10:57:00,37.4,22.6,30.31,SE,135,2.2,2.2,55,0.00,,,0.00,WUHU21623XXSP,2013-11-19 16:57:00,
2013-11-19 11:02:00,37.8,23.0,30.31,SE,135,6.3,6.3,55,0.00,,,0.00,WUHU21623XXSP,2013-11-19 17:02:00,
2013-11-19 11:07:00,37.9,23.1,30.30,ESE,112,0.7,6.3,55,0.00,,,0.00,WUHU21623XXSP,2013-11-19 17:07:00,
2013-11-19 11:12:00,38.3,23.4,30.30,SE,135,4.3,4.3,55,0.00,,,0.00,WUHU21623XXSP,2013-11-19 17:12:00,
2013-11-19 11:17:00,38.8,23.9,30.30,SE,135,4.5,4.5,54,0.00,,,0.00,WUHU21623XXSP,2013-11-19 17:17:00,
2013-11-19 11:22:00,38.8,23.5,30.30,SE,135,4.5,4.5,54,0.00,,,0.00,WUHU21623XXSP,2013-11-19 17:22:00,
2013-11-19 11:27:00,39.4,23.5,30.30,SE,135,4.5,4.5,52,0.00,,,0.00,WUHU21623XXSP,2013-11-19 17:27:00,
2013-11-19 11:32:00,39.6,23.3,30.29,ESE,112,1.1,4.5,52,0.00,,,0.00,WUHU21623XXSP,2013-11-19 17:32:00,
2013-11-19 11:35:00,39.6,23.3,30.29,SSE,157,4.3,4.5,52,0.00,,,0.00,WUHU21623XXSP,2013-11-19 17:35:00,
2013-11-19 11:40:00,39.9,23.2,30.29,SSW,202,5.4,5.4,51,0.00,,,0.00,WUHU21623XXSP,2013-11-19 17:40:00,
2013-11-19 11:45:00,40.1,23.3,30.29,SSW,202,5.4,5.4,51,0.00,,,0.00,WUHU21623XXSP,2013-11-19 17:45:00,
2013-11-19 11:50:00,40.5,23.3,30.28,SSW,202,5.4,5.4,51,0.00,,,0.00,WUHU21623XXSP,2013-11-19 17:50:00,
2013-11-19 11:55:00,41.2,24.3,30.28,South,180,0.0,5.4,51,0.00,,,0.00,WUHU21623XXSP,2013-11-19 17:55:00,
2013-11-19 12:00:00,41.5,24.7,30.28,SSW,202,3.6,3.6,50,0.00,,,0.00,WUHU21623XXSP,2013-11-19 18:00:00,
2013-11-19 12:05:00,41.7,24.4,30.28,SE,135,1.8,3.6,50,0.00,,,0.00,WUHU21623XXSP,2013-11-19 18:05:00,
2013-11-19 12:10:00,41.7,23.9,30.28,SE,135,1.3,1.8,49,0.00,,,0.00,WUHU21623XXSP,2013-11-19 18:10:00,
2013-11-19 12:15:00,41.5,23.4,30.28,ESE,112,1.1,2.7,48,0.00,,,0.00,WUHU21623XXSP,2013-11-19 18:15:00,
2013-11-19 12:20:00,41.5,23.2,30.28,SE,135,1.3,2.7,48,0.00,,,0.00,WUHU21623XXSP,2013-11-19 18:20:00,
2013-11-19 12:25:00,41.9,23.6,30.28,SE,135,1.3,1.3,48,0.00,,,0.00,WUHU21623XXSP,2013-11-19 18:25:00,
2013-11-19 12:30:00,42.1,23.7,30.27,SSE,157,3.8,3.8,48,0.00,,,0.00,WUHU21623XXSP,2013-11-19 18:30:00,
2013-11-19 12:35:00,42.3,23.2,30.27,ESE,112,0.0,3.8,47,0.00,,,0.00,WUHU21623XXSP,2013-11-19 18:35:00,
2013-11-19 12:40:00,42.3,23.4,30.27,South,180,0.7,0.7,47,0.00,,,0.00,WUHU21623XXSP,2013-11-19 18:40:00,
2013-11-19 12:45:00,42.4,23.5,30.27,South,180,0.7,0.7,47,0.00,,,0.00,WUHU21623XXSP,2013-11-19 18:45:00,
2013-11-19 12:50:00,43.0,23.5,30.27,SE,135,1.6,1.6,46,0.00,,,0.00,WUHU21623XXSP,2013-11-19 18:50:00,
2013-11-19 12:55:00,43.0,23.0,30.27,SSE,157,3.8,3.8,45,0.00,,,0.00,WUHU21623XXSP,2013-11-19 18:55:00,
2013-11-19 13:00:00,42.6,23.0,30.26,SE,135,3.6,3.8,45,0.00,,,0.00,WUHU21623XXSP,2013-11-19 19:00:00,
2013-11-19 13:05:00,42.4,22.6,30.26,SE,135,2.2,4.9,45,0.00,,,0.00,WUHU21623XXSP,2013-11-19 19:05:00,
2013-11-19 13:10:00,42.3,22.3,30.26,ENE,67,0.0,4.9,45,0.00,,,0.00,WUHU21623XXSP,2013-11-19 19:10:00,
2013-11-19 13:15:00,42.3,22.3,30.26,SSE,157,0.9,4.5,45,0.00,,,0.00,WUHU21623XXSP,2013-11-19 19:15:00,
2013-11-19 13:20:00,42.3,22.8,30.25,ESE,112,7.8,7.8,46,0.00,,,0.00,WUHU21623XXSP,2013-11-19 19:20:00,
2013-11-19 13:25:00,42.6,23.2,30.25,SSE,157,1.1,7.8,46,0.00,,,0.00,WUHU21623XXSP,2013-11-19 19:25:00,
2013-11-19 13:30:00,43.0,23.5,30.25,SSE,157,1.1,7.8,46,0.00,,,0.00,WUHU21623XXSP,2013-11-19 19:30:00,
2013-11-19 13:35:00,43.2,24.2,30.25,South,180,2.9,2.9,47,0.00,,,0.00,WUHU21623XXSP,2013-11-19 19:35:00,
2013-11-19 13:40:00,43.5,24.4,30.24,SE,135,6.0,6.0,47,0.00,,,0.00,WUHU21623XXSP,2013-11-19 19:40:00,
2013-11-19 13:45:00,43.7,24.5,30.24,South,180,4.7,6.0,47,0.00,,,0.00,WUHU21623XXSP,2013-11-19 19:45:00,
2013-11-19 13:50:00,43.7,24.7,30.24,SE,135,3.8,4.7,47,0.00,,,0.00,WUHU21623XXSP,2013-11-19 19:50:00,
2013-11-19 13:55:00,43.5,24.5,30.24,ESE,112,0.0,3.8,47,0.00,,,0.00,WUHU21623XXSP,2013-11-19 19:55:00,
2013-11-19 14:00:00,43.7,24.5,30.24,ESE,112,0.0,0.0,47,0.00,,,0.00,WUHU21623XXSP,2013-11-19 20:00:00,
2013-11-19 14:05:00,43.5,24.5,30.24,SE,135,0.9,0.9,47,0.00,,,0.00,WUHU21623XXSP,2013-11-19 20:05:00,
2013-11-19 14:10:00,43.7,24.7,30.24,SSE,157,5.1,5.1,47,0.00,,,0.00,WUHU21623XXSP,2013-11-19 20:10:00,
2013-11-19 14:15:00,44.1,24.9,30.24,South,180,6.9,6.9,47,0.00,,,0.00,WUHU21623XXSP,2013-11-19 20:15:00,
2013-11-19 14:20:00,44.2,25.0,30.23,South,180,6.9,6.9,47,0.00,,,0.00,WUHU21623XXSP,2013-11-19 20:20:00,
2013-11-19 14:25:00,44.8,25.4,30.23,South,180,6.9,6.9,46,0.00,,,0.00,WUHU21623XXSP,2013-11-19 20:25:00,
2013-11-19 14:30:00,44.8,25.7,30.23,SE,135,7.8,7.8,47,0.00,,,0.00,WUHU21623XXSP,2013-11-19 20:30:00,
2013-11-19 14:35:00,45.9,26.7,30.23,SSE,157,0.0,7.8,47,0.00,,,0.00,WUHU21623XXSP,2013-11-19 20:35:00,
2013-11-19 14:40:00,45.9,25.6,30.22,SSE,157,5.8,7.8,44,0.00,,,0.00,WUHU21623XXSP,2013-11-19 20:40:00,
2013-11-19 14:45:00,45.9,25.0,30.22,SSE,157,5.8,5.8,44,0.00,,,0.00,WUHU21623XXSP,2013-11-19 20:45:00,
2013-11-19 14:50:00,45.9,25.0,30.23,SE,135,2.7,5.8,44,0.00,,,0.00,WUHU21623XXSP,2013-11-19 20:50:00,
2013-11-19 14:55:00,45.3,24.5,30.23,ESE,112,6.7,6.7,44,0.00,,,0.00,WUHU21623XXSP,2013-11-19 20:55:00,
2013-11-19 15:00:00,45.0,24.5,30.23,ESE,112,6.7,6.7,44,0.00,,,0.00,WUHU21623XXSP,2013-11-19 21:00:00,
2013-11-19 15:05:00,45.0,24.2,30.23,SSE,157,3.1,6.7,44,0.00,,,0.00,WUHU21623XXSP,2013-11-19 21:05:00,
2013-11-19 15:10:00,43.7,23.1,30.23,SE,135,6.0,6.0,44,0.00,,,0.00,WUHU21623XXSP,2013-11-19 21:10:00,
2013-11-19 15:15:00,43.0,23.0,30.23,SE,135,0.4,6.0,45,0.00,,,0.00,WUHU21623XXSP,2013-11-19 21:15:00,
2013-11-19 15:20:00,42.4,23.5,30.23,SE,135,0.4,4.7,47,0.00,,,0.00,WUHU21623XXSP,2013-11-19 21:20:00,
2013-11-19 15:25:00,42.8,24.4,30.23,SE,135,0.9,1.3,48,0.00,,,0.00,WUHU21623XXSP,2013-11-19 21:25:00,
2013-11-19 15:30:00,43.2,24.6,30.23,SE,135,2.5,2.5,48,0.00,,,0.00,WUHU21623XXSP,2013-11-19 21:30:00,
2013-11-19 15:35:00,43.5,25.6,30.23,SSE,157,1.3,2.5,49,0.00,,,0.00,WUHU21623XXSP,2013-11-19 21:35:00,
2013-11-19 15:40:00,43.0,24.6,30.22,ESE,112,3.4,3.8,48,0.00,,,0.00,WUHU21623XXSP,2013-11-19 21:40:00,
2013-11-19 15:45:00,41.9,24.1,30.23,SE,135,0.9,3.8,48,0.00,,,0.00,WUHU21623XXSP,2013-11-19 21:45:00,
2013-11-19 15:50:00,41.0,23.7,30.23,SE,135,1.6,4.5,50,0.00,,,0.00,WUHU21623XXSP,2013-11-19 21:50:00,
2013-11-19 15:55:00,40.6,24.2,30.22,SE,135,1.6,4.5,52,0.00,,,0.00,WUHU21623XXSP,2013-11-19 21:55:00,
2013-11-19 16:00:00,40.6,24.3,30.23,ESE,112,0.9,1.6,52,0.00,,,0.00,WUHU21623XXSP,2013-11-19 22:00:00,
2013-11-19 16:05:00,40.5,24.1,30.22,SE,135,0.0,1.1,52,0.00,,,0.00,WUHU21623XXSP,2013-11-19 22:05:00,
2013-11-19 16:10:00,39.7,24.1,30.22,SE,135,0.0,1.1,54,0.00,,,0.00,WUHU21623XXSP,2013-11-19 22:10:00,
2013-11-19 16:15:00,39.4,24.4,30.22,ESE,112,1.1,2.2,55,0.00,,,0.00,WUHU21623XXSP,2013-11-19 22:15:00,
2013-11-19 16:20:00,38.7,23.8,30.22,ESE,112,1.8,2.2,55,0.00,,,0.00,WUHU21623XXSP,2013-11-19 22:20:00,
2013-11-19 16:25:00,38.3,23.4,30.22,SE,135,0.0,2.9,55,0.00,,,0.00,WUHU21623XXSP,2013-11-19 22:25:00,
2013-11-19 16:30:00,37.9,23.6,30.22,ESE,112,0.7,2.9,56,0.00,,,0.00,WUHU21623XXSP,2013-11-19 22:30:00,
2013-11-19 16:35:00,37.6,23.6,30.23,ESE,112,0.7,0.9,56,0.00,,,0.00,WUHU21623XXSP,2013-11-19 22:35:00,
2013-11-19 16:40:00,37.0,22.7,30.22,ESE,112,1.8,6.3,56,0.00,,,0.00,WUHU21623XXSP,2013-11-19 22:40:00,
2013-11-19 16:45:00,36.9,23.0,30.22,SE,135,0.0,6.3,57,0.00,,,0.00,WUHU21623XXSP,2013-11-19 22:45:00,
2013-11-19 16:50:00,36.7,22.9,30.22,SE,135,0.0,2.5,57,0.00,,,0.00,WUHU21623XXSP,2013-11-19 22:50:00,
2013-11-19 16:55:00,36.3,23.1,30.22,SE,135,2.9,2.9,58,0.00,,,0.00,WUHU21623XXSP,2013-11-19 22:55:00,
2013-11-19 17:00:00,36.1,23.2,30.22,SE,135,4.5,4.5,59,0.00,,,0.00,WUHU21623XXSP,2013-11-19 23:00:00,
2013-11-19 17:05:00,35.8,22.9,30.22,ESE,112,1.8,4.5,59,0.00,,,0.00,WUHU21623XXSP,2013-11-19 23:05:00,
2013-11-19 17:10:00,35.6,23.2,30.22,SE,135,2.0,4.0,60,0.00,,,0.00,WUHU21623XXSP,2013-11-19 23:10:00,
2013-11-19 17:15:00,35.2,22.8,30.22,ESE,112,3.4,3.4,60,0.00,,,0.00,WUHU21623XXSP,2013-11-19 23:15:00,
2013-11-19 17:20:00,35.2,23.2,30.22,SE,135,0.7,6.3,61,0.00,,,0.00,WUHU21623XXSP,2013-11-19 23:20:00,
2013-11-19 17:25:00,35.1,23.0,30.22,ESE,112,3.4,6.3,61,0.00,,,0.00,WUHU21623XXSP,2013-11-19 23:25:00,
2013-11-19 17:30:00,34.9,22.8,30.22,SE,135,4.9,4.9,61,0.00,,,0.00,WUHU21623XXSP,2013-11-19 23:30:00,
2013-11-19 17:35:00,34.7,23.0,30.22,SE,135,3.8,4.9,62,0.00,,,0.00,WUHU21623XXSP,2013-11-19 23:35:00,
2013-11-19 17:40:00,34.7,23.0,30.22,East,90,0.7,3.8,62,0.00,,,0.00,WUHU21623XXSP,2013-11-19 23:40:00,
2013-11-19 17:45:00,34.5,23.0,30.22,SE,135,0.9,2.7,62,0.00,,,0.00,WUHU21623XXSP,2013-11-19 23:45:00,
2013-11-19 17:50:00,34.5,23.2,30.22,ESE,112,0.0,2.7,63,0.00,,,0.00,WUHU21623XXSP,2013-11-19 23:50:00,
2013-11-19 17:55:00,34.3,23.0,30.22,ESE,112,1.1,1.8,63,0.00,,,0.00,WUHU21623XXSP,2013-11-19 23:55:00,
2013-11-19 18:00:00,34.3,23.4,30.22,SSE,157,2.2,2.2,64,0.00,,,0.00,WUHU21623XXSP,2013-11-20 00:00:00,
2013-11-19 18:05:00,34.2,23.2,30.22,SE,135,0.7,3.8,64,0.00,,,0.00,WUHU21623XXSP,2013-11-20 00:05:00,
2013-11-19 18:10:00,34.2,23.2,30.22,SE,135,2.5,3.8,64,0.00,,,0.00,WUHU21623XXSP,2013-11-20 00:10:00,
2013-11-19 18:15:00,34.0,23.4,30.22,SSE,157,3.6,3.6,65,0.00,,,0.00,WUHU21623XXSP,2013-11-20 00:15:00,
2013-11-19 18:20:00,34.0,23.4,30.21,SE,135,5.1,5.1,65,0.00,,,0.00,WUHU21623XXSP,2013-11-20 00:20:00,
2013-11-19 18:25:00,34.0,23.7,30.21,SE,135,2.0,6.7,66,0.00,,,0.00,WUHU21623XXSP,2013-11-20 00:25:00,
2013-11-19 18:30:00,34.0,23.7,30.21,ESE,112,0.0,6.7,66,0.00,,,0.00,WUHU21623XXSP,2013-11-20 00:30:00,
2013-11-19 18:35:00,34.0,23.7,30.21,SE,135,0.0,5.4,66,0.00,,,0.00,WUHU21623XXSP,2013-11-20 00:35:00,
2013-11-19 18:40:00,34.0,24.1,30.21,SE,135,11.0,11.0,67,0.00,,,0.00,WUHU21623XXSP,2013-11-20 00:40:00,
2013-11-19 18:45:00,34.0,24.1,30.21,SE,135,1.8,11.0,67,0.00,,,0.00,WUHU21623XXSP,2013-11-20 00:45:00,
2013-11-19 18:50:00,34.0,24.1,30.21,ESE,112,1.8,3.8,67,0.00,,,0.00,WUHU21623XXSP,2013-11-20 00:50:00,
2013-11-19 18:55:00,34.0,24.4,30.20,SE,135,2.5,3.8,68,0.00,,,0.00,WUHU21623XXSP,2013-11-20 00:55:00,
2013-11-19 19:00:00,33.8,24.3,30.20,SE,135,2.9,4.0,68,0.00,,,0.00,WUHU21623XXSP,2013-11-20 01:00:00,
2013-11-19 19:05:00,34.0,24.4,30.20,ESE,112,5.8,5.8,68,0.00,,,0.00,WUHU21623XXSP,2013-11-20 01:05:00,
2013-11-19 19:10:00,34.0,24.8,30.20,ESE,112,0.9,5.8,69,0.00,,,0.00,WUHU21623XXSP,2013-11-20 01:10:00,
2013-11-19 19:15:00,33.6,24.5,30.20,SE,135,2.9,5.6,69,0.00,,,0.00,WUHU21623XXSP,2013-11-20 01:15:00,
2013-11-19 19:20:00,33.6,24.5,30.20,ESE,112,3.8,4.9,69,0.00,,,0.00,WUHU21623XXSP,2013-11-20 01:20:00,
2013-11-19 19:25:00,33.6,24.8,30.20,SE,135,2.9,4.9,70,0.00,,,0.00,WUHU21623XXSP,2013-11-20 01:25:00,
2013-11-19 19:30:00,33.4,24.7,30.19,ESE,112,2.5,4.3,70,0.00,,,0.00,WUHU21623XXSP,2013-11-20 01:30:00,
2013-11-19 19:35:00,33.4,24.7,30.20,SE,135,5.4,5.4,70,0.00,,,0.00,WUHU21623XXSP,2013-11-20 01:35:00,
2013-11-19 19:40:00,33.4,24.7,30.20,SE,135,4.3,5.4,70,0.00,,,0.00,WUHU21623XXSP,2013-11-20 01:40:00,
2013-11-19 19:45:00,33.4,25.0,30.20,ESE,112,1.3,5.4,71,0.00,,,0.00,WUHU21623XXSP,2013-11-20 01:45:00,
2013-11-19 19:50:00,33.4,25.0,30.19,SE,135,5.1,6.5,71,0.00,,,0.00,WUHU21623XXSP,2013-11-20 01:50:00,
2013-11-19 19:55:00,33.4,25.0,30.20,ESE,112,6.5,6.5,71,0.00,,,0.00,WUHU21623XXSP,2013-11-20 01:55:00,
2013-11-19 20:00:00,33.6,25.1,30.19,South,180,2.5,6.5,71,0.00,,,0.00,WUHU21623XXSP,2013-11-20 02:00:00,
2013-11-19 20:05:00,33.4,25.0,30.19,SE,135,3.6,5.8,71,0.00,,,0.00,WUHU21623XXSP,2013-11-20 02:05:00,
2013-11-19 20:10:00,33.6,25.5,30.19,ESE,112,5.4,5.4,72,0.00,,,0.00,WUHU21623XXSP,2013-11-20 02:10:00,
2013-11-19 20:15:00,33.6,25.5,30.19,SE,135,7.2,7.2,72,0.00,,,0.00,WUHU21623XXSP,2013-11-20 02:15:00,
2013-11-19 20:20:00,33.6,25.3,30.19,SE,135,5.4,7.2,72,0.00,,,0.00,WUHU21623XXSP,2013-11-20 02:20:00,
2013-11-19 20:25:00,33.6,25.5,30.19,ESE,112,2.2,5.4,72,0.00,,,0.00,WUHU21623XXSP,2013-11-20 02:25:00,
2013-11-19 20:30:00,33.8,25.6,30.19,SE,135,11.6,11.6,72,0.00,,,0.00,WUHU21623XXSP,2013-11-20 02:30:00,
2013-11-19 20:35:00,33.8,25.6,30.19,SSE,157,4.5,11.6,72,0.00,,,0.00,WUHU21623XXSP,2013-11-20 02:35:00,
2013-11-19 20:40:00,33.6,25.5,30.19,ESE,112,2.0,5.8,72,0.00,,,0.00,WUHU21623XXSP,2013-11-20 02:40:00,
2013-11-19 20:45:00,33.8,26.0,30.19,SSE,157,2.0,5.8,73,0.00,,,0.00,WUHU21623XXSP,2013-11-20 02:45:00,
2013-11-19 20:50:00,33.8,26.0,30.19,SSE,157,6.0,6.0,73,0.00,,,0.00,WUHU21623XXSP,2013-11-20 02:50:00,
2013-11-19 20:55:00,33.6,25.8,30.19,SE,135,4.5,6.0,73,0.00,,,0.00,WUHU21623XXSP,2013-11-20 02:55:00,
2013-11-19 21:00:00,33.6,25.8,30.19,SE,135,2.0,5.1,73,0.00,,,0.00,WUHU21623XXSP,2013-11-20 03:00:00,
2013-11-19 21:05:00,33.6,25.8,30.20,SE,135,2.7,4.9,73,0.00,,,0.00,WUHU21623XXSP,2013-11-20 03:05:00,
2013-11-19 21:10:00,33.4,25.6,30.19,SE,135,1.6,6.0,73,0.00,,,0.00,WUHU21623XXSP,2013-11-20 03:10:00,
2013-11-19 21:15:00,33.4,25.6,30.19,SSE,157,2.7,6.0,73,0.00,,,0.00,WUHU21623XXSP,2013-11-20 03:15:00,
2013-11-19 21:20:00,33.4,25.6,30.20,SSE,157,5.6,5.6,73,0.00,,,0.00,WUHU21623XXSP,2013-11-20 03:20:00,
2013-11-19 21:25:00,33.3,25.5,30.19,SSE,157,0.7,5.6,73,0.00,,,0.00,WUHU21623XXSP,2013-11-20 03:25:00,
2013-11-19 21:30:00,33.3,25.5,30.20,South,180,2.5,3.1,73,0.00,,,0.00,WUHU21623XXSP,2013-11-20 03:30:00,
2013-11-19 21:35:00,33.1,25.3,30.20,ESE,112,0.9,2.5,73,0.00,,,0.00,WUHU21623XXSP,2013-11-20 03:35:00,
2013-11-19 21:40:00,32.9,25.1,30.19,SSE,157,1.3,1.3,73,0.00,,,0.00,WUHU21623XXSP,2013-11-20 03:40:00,
2013-11-19 21:45:00,32.9,25.1,30.19,SE,135,0.7,1.3,73,0.00,,,0.00,WUHU21623XXSP,2013-11-20 03:45:00,
2013-11-19 21:50:00,32.9,25.5,30.19,SSE,157,6.0,6.0,74,0.00,,,0.00,WUHU21623XXSP,2013-11-20 03:50:00,
2013-11-19 21:55:00,32.9,25.5,30.19,SE,135,2.0,6.0,74,0.00,,,0.00,WUHU21623XXSP,2013-11-20 03:55:00,
2013-11-19 22:00:00,32.9,25.5,30.19,SE,135,3.8,6.3,74,0.00,,,0.00,WUHU21623XXSP,2013-11-20 04:00:00,
2013-11-19 22:05:00,32.9,25.8,30.19,SE,135,6.0,6.3,75,0.00,,,0.00,WUHU21623XXSP,2013-11-20 04:05:00,
2013-11-19 22:10:00,33.1,26.0,30.18,SE,135,0.9,6.9,75,0.00,,,0.00,WUHU21623XXSP,2013-11-20 04:10:00,
2013-11-19 22:15:00,33.1,26.0,30.18,SE,135,2.2,6.9,75,0.00,,,0.00,WUHU21623XXSP,2013-11-20 04:15:00,
2013-11-19 22:20:00,33.3,26.1,30.18,SE,135,2.9,2.9,75,0.00,,,0.00,WUHU21623XXSP,2013-11-20 04:20:00,
2013-11-19 22:25:00,33.1,26.0,30.19,SSE,157,1.6,2.9,75,0.00,,,0.00,WUHU21623XXSP,2013-11-20 04:25:00,
2013-11-19 22:30:00,32.9,25.8,30.19,SE,135,2.0,2.5,75,0.00,,,0.00,WUHU21623XXSP,2013-11-20 04:30:00,
2013-11-19 22:35:00,32.9,25.8,30.19,SE,135,1.1,2.2,75,0.00,,,0.00,WUHU21623XXSP,2013-11-20 04:35:00,
2013-11-19 22:40:00,32.9,25.8,30.19,SE,135,3.4,5.4,75,0.00,,,0.00,WUHU21623XXSP,2013-11-20 04:40:00,
2013-11-19 22:45:00,32.9,25.8,30.19,SE,135,8.5,8.5,75,0.00,,,0.00,WUHU21623XXSP,2013-11-20 04:45:00,
2013-11-19 22:50:00,32.9,25.8,30.19,SE,135,1.8,8.5,75,0.00,,,0.00,WUHU21623XXSP,2013-11-20 04:50:00,
2013-11-19 22:55:00,32.9,26.1,30.19,SSE,157,2.5,4.7,76,0.00,,,0.00,WUHU21623XXSP,2013-11-20 04:55:00,
2013-11-19 23:00:00,32.9,26.1,30.19,SE,135,1.8,5.8,76,0.00,,,0.00,WUHU21623XXSP,2013-11-20 05:00:00,
2013-11-19 23:01:00,32.9,26.1,30.19,SE,135,1.8,5.8,76,0.00,,,0.00,WUHU21623XXSP,2013-11-20 05:01:00,
2013-11-19 23:06:00,32.9,26.1,30.19,SSE,157,4.9,5.8,76,0.00,,,0.00,WUHU21623XXSP,2013-11-20 05:06:00,
2013-11-19 23:11:00,32.9,26.1,30.19,SE,135,1.8,4.9,76,0.00,,,0.00,WUHU21623XXSP,2013-11-20 05:11:00,
2013-11-19 23:16:00,32.9,26.1,30.19,SE,135,1.6,3.8,76,0.00,,,0.00,WUHU21623XXSP,2013-11-20 05:16:00,
2013-11-19 23:21:00,32.7,26.0,30.19,SE,135,3.4,6.3,76,0.00,,,0.00,WUHU21623XXSP,2013-11-20 05:21:00,
2013-11-19 23:26:00,32.9,26.1,30.19,SSE,157,0.2,6.3,76,0.00,,,0.00,WUHU21623XXSP,2013-11-20 05:26:00,
2013-11-19 23:31:00,32.9,26.1,30.19,SE,135,6.0,6.0,76,0.00,,,0.00,WUHU21623XXSP,2013-11-20 05:31:00,
2013-11-19 23:36:00,32.9,26.1,30.19,SE,135,0.2,6.0,76,0.00,,,0.00,WUHU21623XXSP,2013-11-20 05:36:00,
2013-11-19 23:41:00,32.7,26.0,30.19,SE,135,2.5,2.5,76,0.00,,,0.00,WUHU21623XXSP,2013-11-20 05:41:00,
2013-11-19 23:46:00,32.7,26.0,30.19,South,180,3.1,6.3,76,0.00,,,0.00,WUHU21623XXSP,2013-11-20 05:46:00,
2013-11-19 23:51:00,32.7,26.0,30.19,SE,135,3.8,6.3,76,0.00,,,0.00,WUHU21623XXSP,2013-11-20 05:51:00,
2013-11-19 23:56:00,32.7,26.0,30.19,SSE,157,6.0,6.0,76,0.00,,,0.00,WUHU21623XXSP,2013-11-20 05:56:00,